createdAt,value
2023-02-03T00:02:23.815Z,102850.09
2023-02-03T00:04:50.982Z,102856.06
2023-02-03T00:07:19.007Z,102862.75
2023-02-03T00:09:46.199Z,102861.38
2023-02-03T00:12:13.886Z,102853.88
2023-02-03T00:14:41.055Z,102860.78
2023-02-03T00:17:08.339Z,102854.81
2023-02-03T00:19:35.579Z,102859.94
2023-02-03T00:22:02.731Z,102859.00
2023-02-03T00:24:29.971Z,102857.44
2023-02-03T00:26:57.143Z,102862.25
2023-02-03T00:29:25.993Z,102859.31
2023-02-03T00:31:53.996Z,102851.63
2023-02-03T00:34:21.842Z,102851.06
2023-02-03T00:36:49.084Z,102852.47
2023-02-03T00:39:16.525Z,102852.97
2023-02-03T00:41:43.921Z,102854.19
2023-02-03T00:44:11.231Z,102845.59
2023-02-03T00:46:38.715Z,102844.78
2023-02-03T00:49:06.248Z,102836.28
2023-02-03T00:51:34.134Z,102832.38
2023-02-03T00:54:02.968Z,102829.44
2023-02-03T00:56:30.330Z,102826.91
2023-02-03T00:58:57.876Z,102835.19
2023-02-03T01:01:27.158Z,102829.03
2023-02-03T01:03:57.032Z,102822.69
2023-02-03T01:06:24.416Z,102817.84
2023-02-03T01:08:52.199Z,102811.97
2023-02-03T01:11:22.361Z,102807.75
2023-02-03T01:13:50.271Z,102805.31
2023-02-03T01:16:19.966Z,102800.03
2023-02-03T01:18:47.361Z,102800.94
2023-02-03T01:21:20.597Z,102785.03
2023-02-03T01:23:48.101Z,102789.81
2023-02-03T01:26:18.700Z,102782.66
2023-02-03T01:28:53.209Z,102784.13
2023-02-03T01:31:42.303Z,102783.94
2023-02-03T01:34:16.180Z,102774.03
2023-02-03T01:36:44.147Z,102783.81
2023-02-03T01:39:11.578Z,102778.16
2023-02-03T01:41:39.729Z,102775.66
2023-02-03T01:44:45.187Z,102771.72
2023-02-03T01:47:33.930Z,102779.00
2023-02-03T01:50:11.726Z,102774.09
2023-02-03T01:52:41.708Z,102761.22
2023-02-03T01:55:13.164Z,102746.53
2023-02-03T01:57:46.154Z,102743.19
2023-02-03T02:00:13.981Z,102730.88
2023-02-03T02:02:43.324Z,102730.19
2023-02-03T02:05:24.959Z,102720.94
2023-02-03T02:07:52.240Z,102729.19
2023-02-03T02:10:19.684Z,102731.69
2023-02-03T02:12:48.057Z,102745.25
2023-02-03T02:15:15.387Z,102736.00
2023-02-03T02:18:01.292Z,102739.63
2023-02-03T02:21:02.819Z,102742.38
2023-02-03T02:23:37.501Z,102744.44
2023-02-03T02:26:19.805Z,102743.97
2023-02-03T02:29:05.792Z,102738.47
2023-02-03T02:31:44.356Z,102741.41
2023-02-03T02:34:20.289Z,102736.97
2023-02-03T02:37:11.115Z,102742.69
2023-02-03T02:39:48.696Z,102737.06
2023-02-03T02:42:23.446Z,102734.63
2023-02-03T02:45:08.023Z,102725.38
2023-02-03T02:47:35.333Z,102730.06
2023-02-03T02:50:11.496Z,102732.28
2023-02-03T02:52:41.721Z,102729.50
2023-02-03T02:55:17.602Z,102724.66
2023-02-03T02:57:46.278Z,102721.34
2023-02-03T03:00:13.843Z,102725.69
2023-02-03T03:02:41.141Z,102735.00
2023-02-03T03:05:10.585Z,102738.69
2023-02-03T03:07:51.575Z,102739.19
2023-02-03T03:10:24.707Z,102744.69
2023-02-03T03:12:55.881Z,102747.25
2023-02-03T03:15:27.574Z,102750.50
2023-02-03T03:17:59.505Z,102748.28
2023-02-03T03:20:27.908Z,102758.97
2023-02-03T03:23:00.263Z,102770.50
2023-02-03T03:25:36.777Z,102765.34
2023-02-03T03:28:08.556Z,102783.03
2023-02-03T03:30:37.753Z,102797.38
2023-02-03T03:33:06.099Z,102793.03
2023-02-03T03:35:46.852Z,102791.09
2023-02-03T03:38:22.162Z,102795.06
2023-02-03T03:40:55.196Z,102804.41
2023-02-03T03:43:26.935Z,102816.97
2023-02-03T03:46:14.069Z,102821.72
2023-02-03T03:48:52.209Z,102822.19
2023-02-03T03:51:27.282Z,102830.50
2023-02-03T03:53:56.955Z,102824.88
2023-02-03T03:56:41.651Z,102819.84
2023-02-03T03:59:10.073Z,102816.69
2023-02-03T04:01:38.809Z,102810.16
2023-02-03T04:04:09.203Z,102807.81
2023-02-03T04:06:38.583Z,102801.78
2023-02-03T04:09:06.011Z,102801.91
2023-02-03T04:11:52.197Z,102797.19
2023-02-03T04:14:19.477Z,102784.81
2023-02-03T04:16:46.626Z,102773.13
2023-02-03T04:19:13.835Z,102774.41
2023-02-03T04:21:41.050Z,102782.00
2023-02-03T04:24:08.267Z,102791.16
2023-02-03T04:26:35.461Z,102793.66
2023-02-03T04:29:02.923Z,102784.28
2023-02-03T04:31:30.237Z,102781.53
2023-02-03T04:33:57.525Z,102767.91
2023-02-03T04:36:24.796Z,102765.59
2023-02-03T04:38:52.216Z,102757.56
2023-02-03T04:41:19.520Z,102766.00
2023-02-03T04:43:46.836Z,102764.13
2023-02-03T04:46:14.130Z,102766.88
2023-02-03T04:48:41.327Z,102774.91
2023-02-03T04:51:09.315Z,102767.97
2023-02-03T04:53:36.962Z,102767.81
2023-02-03T04:56:04.567Z,102781.75
2023-02-03T04:58:31.770Z,102782.41
2023-02-03T05:00:59.260Z,102775.28
2023-02-03T05:03:26.578Z,102779.00
2023-02-03T05:05:56.942Z,102773.63
2023-02-03T05:08:24.955Z,102771.28
2023-02-03T05:10:52.123Z,102768.38
2023-02-03T05:13:19.322Z,102781.66
2023-02-03T05:15:47.507Z,102780.50
2023-02-03T05:18:14.793Z,102785.16
2023-02-03T05:20:41.999Z,102799.72
2023-02-03T05:23:09.188Z,102800.81
2023-02-03T05:25:36.433Z,102803.06
2023-02-03T05:28:03.853Z,102807.38
2023-02-03T05:30:31.172Z,102821.03
2023-02-03T05:32:58.372Z,102828.06
2023-02-03T05:35:25.628Z,102826.94
2023-02-03T05:37:52.886Z,102824.31
2023-02-03T05:40:38.590Z,102825.97
2023-02-03T05:43:05.773Z,102822.69
2023-02-03T05:45:32.982Z,102831.16
2023-02-03T05:48:02.454Z,102825.19
2023-02-03T05:50:33.317Z,102821.25
2023-02-03T05:53:15.185Z,102813.75
2023-02-03T05:55:44.652Z,102825.97
2023-02-03T05:58:11.854Z,102829.81
2023-02-03T06:00:39.008Z,102837.16
2023-02-03T06:03:06.592Z,102838.63
2023-02-03T06:05:34.762Z,102839.25
2023-02-03T06:08:01.960Z,102829.88
2023-02-03T06:10:29.496Z,102827.25
2023-02-03T06:12:56.921Z,102826.47
2023-02-03T06:15:24.555Z,102814.97
2023-02-03T06:17:52.075Z,102813.03
2023-02-03T06:20:20.316Z,102814.00
2023-02-03T06:22:47.542Z,102809.19
2023-02-03T06:25:14.750Z,102806.41
2023-02-03T06:27:42.250Z,102807.88
2023-02-03T06:30:11.458Z,102816.47
2023-02-03T06:32:38.718Z,102811.50
2023-02-03T06:35:06.187Z,102817.53
2023-02-03T06:37:33.751Z,102816.53
2023-02-03T06:40:01.162Z,102816.63
2023-02-03T06:42:28.330Z,102818.34
2023-02-03T06:44:55.578Z,102821.69
2023-02-03T06:47:22.836Z,102819.25
2023-02-03T06:49:50.007Z,102820.19
2023-02-03T06:52:17.436Z,102819.22
2023-02-03T06:54:44.689Z,102815.22
2023-02-03T06:57:12.043Z,102811.25
2023-02-03T06:59:39.414Z,102817.19
2023-02-03T07:02:09.208Z,102805.41
2023-02-03T07:04:37.045Z,102820.53
2023-02-03T07:07:04.281Z,102823.56
2023-02-03T07:09:31.506Z,102833.66
2023-02-03T07:11:58.745Z,102831.97
2023-02-03T07:14:26.174Z,102843.56
2023-02-03T07:16:54.369Z,102840.56
2023-02-03T07:19:21.703Z,102842.59
2023-02-03T07:21:48.874Z,102834.88
2023-02-03T07:24:16.142Z,102837.72
2023-02-03T07:26:52.806Z,102839.91
2023-02-03T07:29:20.236Z,102848.41
2023-02-03T07:31:47.650Z,102842.31
2023-02-03T07:34:15.586Z,102851.69
2023-02-03T07:36:42.780Z,102853.13
2023-02-03T07:39:09.981Z,102853.00
2023-02-03T07:41:37.350Z,102846.53
2023-02-03T07:44:05.324Z,102849.53
2023-02-03T07:46:32.608Z,102846.19
2023-02-03T07:48:59.910Z,102842.25
2023-02-03T07:51:27.154Z,102854.75
2023-02-03T07:53:54.575Z,102853.72
2023-02-03T07:56:21.824Z,102848.81
2023-02-03T07:58:52.586Z,102843.53
2023-02-03T08:01:20.080Z,102846.84
2023-02-03T08:03:47.374Z,102861.53
2023-02-03T08:06:14.709Z,102858.22
2023-02-03T08:08:42.189Z,102861.03
2023-02-03T08:11:09.691Z,102863.00
2023-02-03T08:13:37.568Z,102863.47
2023-02-03T08:16:05.338Z,102865.28
2023-02-03T08:18:32.876Z,102863.97
2023-02-03T08:21:00.846Z,102870.22
2023-02-03T08:23:28.123Z,102872.38
2023-02-03T08:25:55.442Z,102881.66
2023-02-03T08:28:22.645Z,102891.75
2023-02-03T08:30:49.987Z,102884.41
2023-02-03T08:33:17.325Z,102888.06
2023-02-03T08:35:49.722Z,102883.56
2023-02-03T08:38:17.258Z,102898.88
2023-02-03T08:40:44.620Z,102897.59
2023-02-03T08:43:12.089Z,102903.16
2023-02-03T08:45:40.886Z,102913.13
2023-02-03T08:48:08.230Z,102914.47
2023-02-03T08:50:35.826Z,102911.03
2023-02-03T08:53:03.246Z,102915.38
2023-02-03T08:55:35.415Z,102920.25
2023-02-03T08:58:06.196Z,102919.91
2023-02-03T09:00:36.381Z,102911.94
2023-02-03T09:03:04.182Z,102918.56
2023-02-03T09:05:32.194Z,102911.19
2023-02-03T09:07:59.570Z,102911.41
2023-02-03T09:10:27.816Z,102906.31
2023-02-03T09:12:56.430Z,102906.75
2023-02-03T09:15:27.199Z,102912.94
2023-02-03T09:17:57.982Z,102920.19
2023-02-03T09:20:26.496Z,102910.50
2023-02-03T09:22:55.070Z,102911.78
2023-02-03T09:25:24.957Z,102922.09
2023-02-03T09:27:52.440Z,102916.78
2023-02-03T09:30:20.706Z,102927.00
2023-02-03T09:32:54.073Z,102916.66
2023-02-03T09:35:22.783Z,102924.22
2023-02-03T09:37:50.053Z,102920.94
2023-02-03T09:40:36.335Z,102927.75
2023-02-03T09:43:24.604Z,102923.38
2023-02-03T09:45:52.155Z,102921.69
2023-02-03T09:48:25.302Z,102924.34
2023-02-03T09:50:55.843Z,102939.66
2023-02-03T09:53:37.883Z,102941.88
2023-02-03T09:56:05.339Z,102946.09
2023-02-03T09:58:34.489Z,102950.66
2023-02-03T10:01:06.492Z,102946.25
2023-02-03T10:03:46.259Z,102942.59
2023-02-03T10:06:28.044Z,102943.13
2023-02-03T10:09:05.585Z,102952.09
2023-02-03T10:11:54.640Z,102951.63
2023-02-03T10:14:47.536Z,102949.00
2023-02-03T10:17:33.518Z,102949.56
2023-02-03T10:20:05.362Z,102942.94
2023-02-03T10:22:37.921Z,102950.59
2023-02-03T10:25:16.105Z,102957.81
2023-02-03T10:27:44.464Z,102957.66
2023-02-03T10:30:23.833Z,102961.75
2023-02-03T10:33:11.212Z,102964.19
2023-02-03T10:36:03.861Z,102954.16
2023-02-03T10:38:58.302Z,102963.31
2023-02-03T10:41:31.257Z,102954.91
2023-02-03T10:43:58.944Z,102962.19
2023-02-03T10:46:31.118Z,102956.41
2023-02-03T10:48:58.915Z,102956.38
2023-02-03T10:51:35.131Z,102965.91
2023-02-03T10:54:09.918Z,102959.59
2023-02-03T10:56:38.330Z,102959.88
2023-02-03T10:59:07.394Z,102958.44
2023-02-03T11:01:41.686Z,102947.53
2023-02-03T11:04:27.646Z,102948.78
2023-02-03T11:07:03.398Z,102937.59
2023-02-03T11:09:37.745Z,102929.97
2023-02-03T11:12:16.598Z,102927.78
2023-02-03T11:14:48.392Z,102938.25
2023-02-03T11:17:29.719Z,102934.34
2023-02-03T11:20:06.617Z,102932.09
2023-02-03T11:22:37.981Z,102932.09
2023-02-03T11:25:17.075Z,102939.53
2023-02-03T11:27:45.646Z,102936.16
2023-02-03T11:30:30.435Z,102932.63
2023-02-03T11:33:00.941Z,102925.50
2023-02-03T11:35:31.797Z,102930.88
2023-02-03T11:38:01.142Z,102921.94
2023-02-03T11:40:34.416Z,102926.78
2023-02-03T11:43:17.863Z,102930.13
2023-02-03T11:45:48.571Z,102933.72
2023-02-03T11:48:32.252Z,102932.50
2023-02-03T11:51:18.062Z,102929.78
2023-02-03T11:53:57.289Z,102934.22
2023-02-03T11:56:24.874Z,102936.88
2023-02-03T11:59:10.965Z,102933.69
2023-02-03T12:01:54.544Z,102930.28
2023-02-03T12:04:37.429Z,102917.06
2023-02-03T12:07:36.864Z,102917.38
2023-02-03T12:10:22.399Z,102912.19
2023-02-03T12:13:15.097Z,102912.84
2023-02-03T12:15:47.043Z,102922.47
2023-02-03T12:18:35.891Z,102908.00
2023-02-03T12:21:24.973Z,102913.91
2023-02-03T12:24:35.850Z,102894.19
2023-02-03T12:27:28.887Z,102895.69
2023-02-03T12:30:03.844Z,102898.06
2023-02-03T12:32:52.699Z,102896.97
2023-02-03T12:35:40.072Z,102900.47
2023-02-03T12:38:18.945Z,102877.66
2023-02-03T12:40:59.352Z,102873.41
2023-02-03T12:43:39.963Z,102870.66
2023-02-03T12:46:36.783Z,102856.97
2023-02-03T12:49:15.730Z,102860.63
2023-02-03T12:51:59.674Z,102860.88
2023-02-03T12:54:54.147Z,102863.25
2023-02-03T12:57:32.351Z,102866.03
2023-02-03T13:00:17.888Z,102849.06
2023-02-03T13:02:56.212Z,102852.31
2023-02-03T13:05:28.895Z,102853.75
2023-02-03T13:08:06.253Z,102853.84
2023-02-03T13:10:44.057Z,102852.88
2023-02-03T13:13:15.220Z,102848.50
2023-02-03T13:15:47.824Z,102833.81
2023-02-03T13:18:33.639Z,102833.50
2023-02-03T13:21:01.076Z,102845.69
2023-02-03T13:23:28.380Z,102847.94
2023-02-03T13:26:51.930Z,102845.00
2023-02-03T13:29:44.063Z,102834.38
2023-02-03T13:32:23.255Z,102827.28
2023-02-03T13:35:32.263Z,102826.25
2023-02-03T13:38:04.009Z,102822.41
2023-02-03T13:40:51.827Z,102819.25
2023-02-03T13:43:37.189Z,102813.53
2023-02-03T13:46:09.037Z,102805.75
2023-02-03T13:48:37.023Z,102812.81
2023-02-03T13:51:15.339Z,102821.91
2023-02-03T13:53:44.395Z,102820.09
2023-02-03T13:56:25.351Z,102814.44
2023-02-03T13:59:40.506Z,102822.69
2023-02-03T14:02:20.036Z,102821.59
2023-02-03T14:04:47.376Z,102827.94
2023-02-03T14:07:38.312Z,102832.72
2023-02-03T14:10:14.729Z,102830.81
2023-02-03T14:12:51.246Z,102817.91
2023-02-03T14:15:21.599Z,102824.31
2023-02-03T14:17:52.293Z,102825.84
2023-02-03T14:20:25.670Z,102829.59
2023-02-03T14:22:56.169Z,102832.69
2023-02-03T14:25:24.690Z,102825.56
2023-02-03T14:28:04.314Z,102828.91
2023-02-03T14:30:31.742Z,102818.94
2023-02-03T14:33:01.416Z,102819.34
2023-02-03T14:35:37.127Z,102824.56
2023-02-03T14:38:06.995Z,102824.31
2023-02-03T14:40:48.058Z,102838.84
2023-02-03T14:43:43.457Z,102829.34
2023-02-03T14:46:33.947Z,102827.97
2023-02-03T14:49:03.995Z,102823.28
2023-02-03T14:51:50.121Z,102828.00
2023-02-03T14:54:35.819Z,102828.28
2023-02-03T14:57:21.443Z,102834.88
2023-02-03T14:59:59.342Z,102834.13
2023-02-03T15:02:31.044Z,102842.13
2023-02-03T15:05:13.826Z,102839.38
2023-02-03T15:07:49.657Z,102847.06
2023-02-03T15:10:27.452Z,102851.59
2023-02-03T15:12:56.997Z,102848.81
2023-02-03T15:15:25.610Z,102859.66
2023-02-03T15:17:55.434Z,102873.41
2023-02-03T15:20:32.546Z,102875.16
2023-02-03T15:23:00.414Z,102874.50
2023-02-03T15:25:30.267Z,102871.56
2023-02-03T15:28:19.330Z,102863.91
2023-02-03T15:30:48.293Z,102869.47
2023-02-03T15:33:20.358Z,102860.56
2023-02-03T15:35:51.588Z,102859.03
2023-02-03T15:38:26.590Z,102853.13
2023-02-03T15:40:57.828Z,102853.44
2023-02-03T15:43:30.181Z,102857.06
2023-02-03T15:46:13.442Z,102861.22
2023-02-03T15:48:45.686Z,102870.75
2023-02-03T15:51:22.014Z,102858.59
2023-02-03T15:54:12.078Z,102857.16
2023-02-03T15:56:42.604Z,102850.03
2023-02-03T15:59:35.887Z,102848.41
2023-02-03T16:02:15.359Z,102858.06
2023-02-03T16:04:43.274Z,102868.56
2023-02-03T16:07:22.939Z,102876.44
2023-02-03T16:09:55.405Z,102875.59
2023-02-03T16:12:26.314Z,102885.41
2023-02-03T16:14:55.195Z,102874.59
2023-02-03T16:17:35.617Z,102871.56
2023-02-03T16:20:14.323Z,102875.97
2023-02-03T16:23:02.095Z,102885.13
2023-02-03T16:25:32.773Z,102890.97
2023-02-03T16:28:21.074Z,102896.28
2023-02-03T16:31:24.334Z,102889.88
2023-02-03T16:34:10.295Z,102880.13
2023-02-03T16:37:01.716Z,102880.44
2023-02-03T16:39:47.787Z,102883.72
2023-02-03T16:42:38.822Z,102892.28
2023-02-03T16:45:36.107Z,102889.00
2023-02-03T16:48:22.807Z,102887.16
2023-02-03T16:50:50.926Z,102894.31
2023-02-03T16:53:20.704Z,102892.97
2023-02-03T16:55:48.720Z,102886.63
2023-02-03T16:58:16.618Z,102889.13
2023-02-03T17:00:46.245Z,102899.72
2023-02-03T17:03:19.440Z,102904.94
2023-02-03T17:05:47.828Z,102908.34
2023-02-03T17:08:16.046Z,102906.22
2023-02-03T17:10:44.885Z,102906.91
2023-02-03T17:13:12.430Z,102899.44
2023-02-03T17:15:44.452Z,102915.97
2023-02-03T17:18:12.476Z,102910.72
2023-02-03T17:20:40.130Z,102905.00
2023-02-03T17:23:07.787Z,102903.59
2023-02-03T17:25:38.581Z,102904.16
2023-02-03T17:28:07.863Z,102905.25
2023-02-03T17:30:36.053Z,102901.38
2023-02-03T17:33:11.780Z,102887.28
2023-02-03T17:35:44.228Z,102889.72
2023-02-03T17:38:13.327Z,102901.94
2023-02-03T17:54:30.969Z,102891.19
2023-02-03T17:56:58.140Z,102898.94
2023-02-03T17:59:25.351Z,102906.91
2023-02-03T18:01:53.009Z,102907.78
2023-02-03T18:04:20.292Z,102908.06
2023-02-03T18:06:47.481Z,102899.47
2023-02-03T18:09:16.612Z,102905.44
2023-02-03T18:11:45.845Z,102900.38
2023-02-03T18:14:15.039Z,102913.28
2023-02-03T18:16:42.943Z,102906.91
2023-02-03T18:19:14.193Z,102906.66
2023-02-03T18:21:42.514Z,102912.94
2023-02-03T18:24:12.188Z,102915.22
2023-02-03T18:26:49.805Z,102928.72
2023-02-03T18:29:17.612Z,102936.47
2023-02-03T18:31:45.536Z,102936.19
2023-02-03T18:34:12.922Z,102939.13
2023-02-03T18:39:15.076Z,102926.09
2023-02-03T18:41:42.568Z,102925.34
2023-02-03T18:44:10.048Z,102934.38
2023-02-03T18:46:37.402Z,102938.28
2023-02-03T18:49:07.879Z,102951.72
2023-02-03T18:51:37.938Z,102953.81
2023-02-03T18:54:05.217Z,102951.69
2023-02-03T18:56:35.327Z,102947.06
2023-02-03T18:59:14.125Z,102950.63
2023-02-03T19:01:41.454Z,102958.44
2023-02-03T19:04:08.953Z,102960.88
2023-02-03T19:06:36.476Z,102962.28
2023-02-03T19:09:05.453Z,102968.88
2023-02-03T19:11:33.853Z,102966.63
2023-02-03T19:14:01.192Z,102968.44
2023-02-03T19:16:28.451Z,102969.50
2023-02-03T19:18:55.765Z,102961.06
2023-02-03T19:21:23.013Z,102971.50
2023-02-03T19:23:50.352Z,102964.16
2023-02-03T19:26:17.579Z,102974.63
2023-02-03T19:28:44.965Z,102965.63
2023-02-03T19:31:15.228Z,102966.63
2023-02-03T19:33:43.002Z,102970.00
2023-02-03T19:36:11.315Z,102978.03
2023-02-03T19:38:38.887Z,102986.22
2023-02-03T19:41:07.443Z,102988.41
2023-02-03T19:43:35.124Z,102983.00
2023-02-03T19:46:02.603Z,102975.41
2023-02-03T19:48:29.840Z,102986.72
2023-02-03T19:50:57.295Z,102988.03
2023-02-03T19:53:24.539Z,102983.91
2023-02-03T19:55:52.102Z,102984.78
2023-02-03T19:58:19.405Z,102974.44
2023-02-03T20:00:46.735Z,102976.22
2023-02-03T20:03:13.943Z,102980.56
2023-02-03T20:05:41.496Z,102983.72
2023-02-03T20:08:12.873Z,102979.25
2023-02-03T20:10:42.330Z,102991.50
2023-02-03T20:13:10.800Z,103000.50
2023-02-03T20:15:38.312Z,102990.97
2023-02-03T20:18:06.833Z,102994.31
2023-02-03T20:20:34.960Z,102997.06
2023-02-03T20:23:02.414Z,102999.75
2023-02-03T20:25:29.772Z,102996.94
2023-02-03T20:27:58.206Z,102999.03
2023-02-03T20:30:25.716Z,102991.53
2023-02-03T20:32:54.747Z,102991.59
2023-02-03T20:35:23.944Z,103002.84
2023-02-03T20:37:51.500Z,102998.22
2023-02-03T20:40:22.489Z,102993.88
2023-02-03T20:42:51.152Z,102998.50
2023-02-03T20:45:20.534Z,103008.72
2023-02-03T20:47:47.860Z,103006.72
2023-02-03T20:50:28.859Z,103007.75
2023-02-03T20:52:59.369Z,103008.41
2023-02-03T20:55:26.639Z,103008.09
2023-02-03T20:57:56.788Z,103012.59
2023-02-03T21:00:25.213Z,103010.31
2023-02-03T21:03:11.562Z,103016.41
2023-02-03T21:05:42.159Z,103020.78
2023-02-03T21:08:14.657Z,103016.09
2023-02-03T21:10:42.315Z,103008.53
2023-02-03T21:13:29.472Z,103016.31
2023-02-03T21:16:04.090Z,103016.50
2023-02-03T21:19:00.540Z,103017.41
2023-02-03T21:21:30.499Z,103017.50
2023-02-03T21:23:57.758Z,103013.06
2023-02-03T21:26:29.574Z,103004.47
2023-02-03T21:28:59.043Z,103006.28
2023-02-03T21:31:30.430Z,103014.63
2023-02-03T21:33:59.750Z,103014.75
2023-02-03T21:36:30.753Z,103006.88
2023-02-03T21:39:02.200Z,103005.91
2023-02-03T21:41:33.226Z,103002.31
2023-02-03T21:44:01.031Z,103015.34
2023-02-03T21:46:38.713Z,103010.94
2023-02-03T21:49:07.486Z,103012.97
2023-02-03T21:51:39.178Z,103011.25
2023-02-03T21:54:23.718Z,103009.63
2023-02-03T21:56:51.078Z,103019.50
2023-02-03T21:59:21.674Z,103024.03
2023-02-03T22:01:49.180Z,103017.47
2023-02-03T22:04:16.562Z,103023.13
2023-02-03T22:06:45.958Z,103026.28
2023-02-03T22:09:19.441Z,103021.81
2023-02-03T22:11:46.896Z,103023.91
2023-02-03T22:14:16.758Z,103031.53
2023-02-03T22:16:44.712Z,103027.31
2023-02-03T22:19:12.047Z,103019.91
2023-02-03T22:21:39.504Z,103016.94
2023-02-03T22:24:06.742Z,103016.56
2023-02-03T22:26:34.004Z,103027.13
2023-02-03T22:29:02.373Z,103026.28
2023-02-03T22:31:29.927Z,103033.91
2023-02-03T22:33:57.321Z,103033.75
2023-02-03T22:36:25.819Z,103032.47
2023-02-03T22:38:53.234Z,103036.47
2023-02-03T22:41:21.042Z,103027.56
2023-02-03T22:43:48.332Z,103031.41
2023-02-03T22:46:15.651Z,103036.69
2023-02-03T22:48:42.932Z,103033.47
2023-02-03T22:51:10.211Z,103027.63
2023-02-03T22:53:39.468Z,103032.00
2023-02-03T22:56:07.057Z,103024.53
2023-02-03T22:58:34.347Z,103019.56
2023-02-03T23:01:01.648Z,103026.31
2023-02-03T23:03:32.230Z,103025.03
2023-02-03T23:05:59.644Z,103024.13
2023-02-03T23:08:27.458Z,103021.75
2023-02-03T23:10:55.783Z,103027.94
2023-02-03T23:13:23.352Z,103025.44
2023-02-03T23:15:51.135Z,103034.59
2023-02-03T23:18:18.422Z,103031.66
2023-02-03T23:20:45.704Z,103027.75
2023-02-03T23:23:14.198Z,103030.78
2023-02-03T23:25:41.597Z,103034.50
2023-02-03T23:28:08.875Z,103040.66
2023-02-03T23:30:36.320Z,103040.50
2023-02-03T23:33:03.598Z,103042.03
2023-02-03T23:35:46.107Z,103045.63
2023-02-03T23:38:14.771Z,103047.56
2023-02-03T23:40:42.159Z,103044.38
2023-02-03T23:43:09.437Z,103041.69
2023-02-03T23:45:36.671Z,103042.91
2023-02-03T23:48:04.693Z,103044.13
2023-02-03T23:50:32.228Z,103049.88
2023-02-03T23:52:59.743Z,103039.75
2023-02-03T23:55:26.948Z,103043.78
2023-02-03T23:57:54.237Z,103033.22
